Terminal Aerodrome Forecast
Issued by NWS Atlanta, GA

Home | Current Version | Previous Version | Text Only | Print | Product List | Glossary On
Versions: 1 2 3 4 5 6 7 8 9 10 11 12 13 14 15 16 17 18 19 20 21 22 23 24 25 26 27 28 29 30 31 32 33 34 35
413
FTUS42 KFFC 261729
TAFAHN
TAF
KAHN 261729Z 2618/2718 VRB03KT P6SM BKN040 OVC070
     FM261900 08006KT 6SM -SHRA FEW015 SCT025 OVC040
      TEMPO 2620/2624 4SM SHRA SCT015 BKN025 OVC040
     FM270400 22004KT P6SM VCSH BKN025
     FM270800 29003KT 4SM BR BKN012
     FM271400 30007KT P6SM SCT015 SCT035=

USA.gov is the U.S. government's official web portal to all federal, state and local government web resources and services.